sensor_id;sensor_type;location;lat;lon;timestamp;temperature;humidity
4386;DHT22;2207;53.540;10.042;2023-07-02T00:00:21;15.50;77.00
4386;DHT22;2207;53.540;10.042;2023-07-02T00:02:47;15.50;77.20
4386;DHT22;2207;53.540;10.042;2023-07-02T00:05:14;15.50;77.20
4386;DHT22;2207;53.540;10.042;2023-07-02T00:07:42;15.40;77.30
4386;DHT22;2207;53.540;10.042;2023-07-02T00:10:09;15.40;77.40
4386;DHT22;2207;53.540;10.042;2023-07-02T00:12:37;15.40;77.50
4386;DHT22;2207;53.540;10.042;2023-07-02T00:15:04;15.40;77.50
4386;DHT22;2207;53.540;10.042;2023-07-02T00:17:31;15.30;77.50
4386;DHT22;2207;53.540;10.042;2023-07-02T00:19:57;15.30;77.60
4386;DHT22;2207;53.540;10.042;2023-07-02T00:22:31;15.30;77.60
4386;DHT22;2207;53.540;10.042;2023-07-02T00:25:01;15.30;77.60
4386;DHT22;2207;53.540;10.042;2023-07-02T00:27:28;15.30;77.60
4386;DHT22;2207;53.540;10.042;2023-07-02T00:29:55;15.20;77.70
4386;DHT22;2207;53.540;10.042;2023-07-02T00:32:22;15.20;77.90
4386;DHT22;2207;53.540;10.042;2023-07-02T00:34:51;15.30;78.20
4386;DHT22;2207;53.540;10.042;2023-07-02T00:37:17;15.40;78.20
4386;DHT22;2207;53.540;10.042;2023-07-02T00:39:44;15.50;78.30
4386;DHT22;2207;53.540;10.042;2023-07-02T00:42:11;15.60;78.30
4386;DHT22;2207;53.540;10.042;2023-07-02T00:44:37;15.60;78.10
4386;DHT22;2207;53.540;10.042;2023-07-02T00:47:07;15.70;78.10
4386;DHT22;2207;53.540;10.042;2023-07-02T00:49:34;15.70;78.00
4386;DHT22;2207;53.540;10.042;2023-07-02T00:52:00;15.80;78.00
4386;DHT22;2207;53.540;10.042;2023-07-02T00:54:27;15.80;78.00
4386;DHT22;2207;53.540;10.042;2023-07-02T00:56:54;15.80;78.10
4386;DHT22;2207;53.540;10.042;2023-07-02T00:59:20;15.80;78.10
4386;DHT22;2207;53.540;10.042;2023-07-02T01:01:47;15.90;78.20
4386;DHT22;2207;53.540;10.042;2023-07-02T01:04:17;15.90;78.10
4386;DHT22;2207;53.540;10.042;2023-07-02T01:06:44;16.00;78.10
4386;DHT22;2207;53.540;10.042;2023-07-02T01:09:11;16.00;78.10
4386;DHT22;2207;53.540;10.042;2023-07-02T01:11:38;16.00;78.00
4386;DHT22;2207;53.540;10.042;2023-07-02T01:14:08;16.10;78.20
4386;DHT22;2207;53.540;10.042;2023-07-02T01:16:34;16.10;78.10
4386;DHT22;2207;53.540;10.042;2023-07-02T01:19:03;16.10;78.00
4386;DHT22;2207;53.540;10.042;2023-07-02T01:21:32;16.10;77.90
4386;DHT22;2207;53.540;10.042;2023-07-02T01:23:58;16.10;77.90
4386;DHT22;2207;53.540;10.042;2023-07-02T01:26:27;16.00;78.00
4386;DHT22;2207;53.540;10.042;2023-07-02T01:28:53;15.90;78.10
4386;DHT22;2207;53.540;10.042;2023-07-02T01:31:20;15.90;78.10
4386;DHT22;2207;53.540;10.042;2023-07-02T01:33:50;15.90;78.20
4386;DHT22;2207;53.540;10.042;2023-07-02T01:36:17;15.90;79.10
4386;DHT22;2207;53.540;10.042;2023-07-02T01:38:45;15.90;78.40
4386;DHT22;2207;53.540;10.042;2023-07-02T01:41:11;15.90;78.50
4386;DHT22;2207;53.540;10.042;2023-07-02T01:43:38;15.90;78.40
4386;DHT22;2207;53.540;10.042;2023-07-02T01:46:04;16.00;78.50
4386;DHT22;2207;53.540;10.042;2023-07-02T01:48:31;16.00;78.40
4386;DHT22;2207;53.540;10.042;2023-07-02T01:50:57;16.10;78.40
4386;DHT22;2207;53.540;10.042;2023-07-02T01:53:24;16.10;78.30
4386;DHT22;2207;53.540;10.042;2023-07-02T01:55:52;16.10;78.30
4386;DHT22;2207;53.540;10.042;2023-07-02T01:58:18;16.10;78.30
4386;DHT22;2207;53.540;10.042;2023-07-02T02:00:45;16.10;78.30
4386;DHT22;2207;53.540;10.042;2023-07-02T02:03:12;16.10;78.20
4386;DHT22;2207;53.540;10.042;2023-07-02T02:05:38;16.00;77.90
4386;DHT22;2207;53.540;10.042;2023-07-02T02:08:05;15.90;77.80
4386;DHT22;2207;53.540;10.042;2023-07-02T02:10:31;15.80;77.90
4386;DHT22;2207;53.540;10.042;2023-07-02T02:12:59;15.70;78.10
4386;DHT22;2207;53.540;10.042;2023-07-02T02:15:26;15.70;78.50
4386;DHT22;2207;53.540;10.042;2023-07-02T02:17:52;15.70;78.70
4386;DHT22;2207;53.540;10.042;2023-07-02T02:20:19;15.70;78.60
4386;DHT22;2207;53.540;10.042;2023-07-02T02:22:46;15.70;78.60
4386;DHT22;2207;53.540;10.042;2023-07-02T02:25:12;15.70;78.60
4386;DHT22;2207;53.540;10.042;2023-07-02T02:27:39;15.60;78.50
4386;DHT22;2207;53.540;10.042;2023-07-02T02:30:07;15.60;78.60
4386;DHT22;2207;53.540;10.042;2023-07-02T02:32:34;15.70;78.90
4386;DHT22;2207;53.540;10.042;2023-07-02T02:35:02;15.70;79.00
4386;DHT22;2207;53.540;10.042;2023-07-02T02:37:29;15.80;78.90
4386;DHT22;2207;53.540;10.042;2023-07-02T02:39:57;15.80;78.70
4386;DHT22;2207;53.540;10.042;2023-07-02T02:42:24;15.80;78.60
4386;DHT22;2207;53.540;10.042;2023-07-02T02:44:51;15.80;78.80
4386;DHT22;2207;53.540;10.042;2023-07-02T02:47:19;15.80;78.90
4386;DHT22;2207;53.540;10.042;2023-07-02T02:49:45;15.90;79.50
4386;DHT22;2207;53.540;10.042;2023-07-02T02:52:12;15.90;78.70
4386;DHT22;2207;53.540;10.042;2023-07-02T02:54:39;15.90;78.50
4386;DHT22;2207;53.540;10.042;2023-07-02T02:57:06;15.90;78.50
4386;DHT22;2207;53.540;10.042;2023-07-02T02:59:33;15.80;78.50
4386;DHT22;2207;53.540;10.042;2023-07-02T03:01:59;15.80;78.60
4386;DHT22;2207;53.540;10.042;2023-07-02T03:04:27;15.70;78.40
4386;DHT22;2207;53.540;10.042;2023-07-02T03:06:54;15.70;78.50
4386;DHT22;2207;53.540;10.042;2023-07-02T03:09:21;15.60;78.50
4386;DHT22;2207;53.540;10.042;2023-07-02T03:11:48;15.60;78.70
4386;DHT22;2207;53.540;10.042;2023-07-02T03:14:14;15.50;78.70
4386;DHT22;2207;53.540;10.042;2023-07-02T03:16:41;15.50;78.70
4386;DHT22;2207;53.540;10.042;2023-07-02T03:19:08;15.50;78.80
4386;DHT22;2207;53.540;10.042;2023-07-02T03:21:35;15.50;78.80
4386;DHT22;2207;53.540;10.042;2023-07-02T03:24:02;15.50;79.70
4386;DHT22;2207;53.540;10.042;2023-07-02T03:26:29;15.50;78.90
4386;DHT22;2207;53.540;10.042;2023-07-02T03:28:55;15.50;78.90
4386;DHT22;2207;53.540;10.042;2023-07-02T03:31:22;15.50;78.90
4386;DHT22;2207;53.540;10.042;2023-07-02T03:33:48;15.50;78.90
4386;DHT22;2207;53.540;10.042;2023-07-02T03:36:15;15.50;78.90
4386;DHT22;2207;53.540;10.042;2023-07-02T03:38:43;15.50;78.90
4386;DHT22;2207;53.540;10.042;2023-07-02T03:41:09;15.60;79.00
4386;DHT22;2207;53.540;10.042;2023-07-02T03:43:36;15.60;78.90
4386;DHT22;2207;53.540;10.042;2023-07-02T03:46:02;15.70;79.00
4386;DHT22;2207;53.540;10.042;2023-07-02T03:48:29;15.70;78.90
4386;DHT22;2207;53.540;10.042;2023-07-02T03:50:55;15.70;78.80
4386;DHT22;2207;53.540;10.042;2023-07-02T03:53:22;15.80;78.90
4386;DHT22;2207;53.540;10.042;2023-07-02T03:55:50;15.80;78.80
4386;DHT22;2207;53.540;10.042;2023-07-02T03:58:16;15.90;78.90
4386;DHT22;2207;53.540;10.042;2023-07-02T04:00:43;15.90;78.80
4386;DHT22;2207;53.540;10.042;2023-07-02T04:03:09;15.90;78.70
4386;DHT22;2207;53.540;10.042;2023-07-02T04:05:36;16.00;78.70
4386;DHT22;2207;53.540;10.042;2023-07-02T04:08:02;16.00;78.60
4386;DHT22;2207;53.540;10.042;2023-07-02T04:10:29;16.10;78.60
4386;DHT22;2207;53.540;10.042;2023-07-02T04:12:57;16.10;78.50
4386;DHT22;2207;53.540;10.042;2023-07-02T04:15:23;16.20;78.50
4386;DHT22;2207;53.540;10.042;2023-07-02T04:17:52;16.30;78.40
4386;DHT22;2207;53.540;10.042;2023-07-02T04:20:18;16.30;78.20
4386;DHT22;2207;53.540;10.042;2023-07-02T04:22:45;16.40;78.90
4386;DHT22;2207;53.540;10.042;2023-07-02T04:25:12;16.50;77.90
4386;DHT22;2207;53.540;10.042;2023-07-02T04:27:40;16.50;77.60
4386;DHT22;2207;53.540;10.042;2023-07-02T04:30:09;16.60;77.50
4386;DHT22;2207;53.540;10.042;2023-07-02T04:32:36;16.70;77.50
4386;DHT22;2207;53.540;10.042;2023-07-02T04:35:04;16.70;77.00
4386;DHT22;2207;53.540;10.042;2023-07-02T04:37:31;16.80;77.00
4386;DHT22;2207;53.540;10.042;2023-07-02T04:39:58;16.90;76.70
4386;DHT22;2207;53.540;10.042;2023-07-02T04:42:25;17.00;76.70
4386;DHT22;2207;53.540;10.042;2023-07-02T04:44:52;17.00;76.30
4386;DHT22;2207;53.540;10.042;2023-07-02T04:47:20;17.10;76.20
4386;DHT22;2207;53.540;10.042;2023-07-02T04:49:47;17.20;75.80
4386;DHT22;2207;53.540;10.042;2023-07-02T04:52:13;17.20;75.70
4386;DHT22;2207;53.540;10.042;2023-07-02T04:54:40;17.30;75.50
4386;DHT22;2207;53.540;10.042;2023-07-02T04:57:06;17.30;75.20
4386;DHT22;2207;53.540;10.042;2023-07-02T04:59:33;17.40;74.80
4386;DHT22;2207;53.540;10.042;2023-07-02T05:01:59;17.50;74.80
4386;DHT22;2207;53.540;10.042;2023-07-02T05:04:27;17.60;74.30
4386;DHT22;2207;53.540;10.042;2023-07-02T05:06:54;17.60;74.10
4386;DHT22;2207;53.540;10.042;2023-07-02T05:09:20;17.70;74.20
4386;DHT22;2207;53.540;10.042;2023-07-02T05:11:47;17.80;74.10
4386;DHT22;2207;53.540;10.042;2023-07-02T05:14:13;18.00;74.00
4386;DHT22;2207;53.540;10.042;2023-07-02T05:16:40;18.10;73.50
4386;DHT22;2207;53.540;10.042;2023-07-02T05:19:06;18.30;73.30
4386;DHT22;2207;53.540;10.042;2023-07-02T05:21:34;18.40;72.50
4386;DHT22;2207;53.540;10.042;2023-07-02T05:24:01;18.60;73.00
4386;DHT22;2207;53.540;10.042;2023-07-02T05:26:27;19.70;74.50
4386;DHT22;2207;53.540;10.042;2023-07-02T05:28:54;21.80;70.80
4386;DHT22;2207;53.540;10.042;2023-07-02T05:31:20;23.90;67.70
4386;DHT22;2207;53.540;10.042;2023-07-02T05:33:47;25.80;63.20
4386;DHT22;2207;53.540;10.042;2023-07-02T05:36:13;27.20;58.90
4386;DHT22;2207;53.540;10.042;2023-07-02T05:38:41;28.10;56.10
4386;DHT22;2207;53.540;10.042;2023-07-02T05:41:08;28.90;54.10
4386;DHT22;2207;53.540;10.042;2023-07-02T05:43:35;29.80;52.30
4386;DHT22;2207;53.540;10.042;2023-07-02T05:46:01;30.30;50.10
4386;DHT22;2207;53.540;10.042;2023-07-02T05:48:28;31.00;48.90
4386;DHT22;2207;53.540;10.042;2023-07-02T05:50:54;31.40;45.80
4386;DHT22;2207;53.540;10.042;2023-07-02T05:53:21;32.00;43.60
4386;DHT22;2207;53.540;10.042;2023-07-02T05:55:49;32.00;43.20
4386;DHT22;2207;53.540;10.042;2023-07-02T05:58:15;31.90;43.30
4386;DHT22;2207;53.540;10.042;2023-07-02T06:00:42;31.80;43.10
4386;DHT22;2207;53.540;10.042;2023-07-02T06:03:14;31.90;42.10
4386;DHT22;2207;53.540;10.042;2023-07-02T06:05:45;32.30;40.40
4386;DHT22;2207;53.540;10.042;2023-07-02T06:08:12;32.80;39.30
4386;DHT22;2207;53.540;10.042;2023-07-02T06:10:39;33.80;38.30
4386;DHT22;2207;53.540;10.042;2023-07-02T06:13:06;34.70;36.40
4386;DHT22;2207;53.540;10.042;2023-07-02T06:15:33;35.20;35.20
4386;DHT22;2207;53.540;10.042;2023-07-02T06:17:59;35.40;33.80
4386;DHT22;2207;53.540;10.042;2023-07-02T06:20:26;35.30;32.70
4386;DHT22;2207;53.540;10.042;2023-07-02T06:22:52;34.90;33.30
4386;DHT22;2207;53.540;10.042;2023-07-02T06:25:19;35.00;33.10
4386;DHT22;2207;53.540;10.042;2023-07-02T06:27:46;35.20;32.80
4386;DHT22;2207;53.540;10.042;2023-07-02T06:30:14;35.30;31.60
4386;DHT22;2207;53.540;10.042;2023-07-02T06:32:40;35.60;31.00
4386;DHT22;2207;53.540;10.042;2023-07-02T06:35:07;36.20;30.60
4386;DHT22;2207;53.540;10.042;2023-07-02T06:37:34;36.50;29.90
4386;DHT22;2207;53.540;10.042;2023-07-02T06:40:00;36.40;29.90
4386;DHT22;2207;53.540;10.042;2023-07-02T06:42:29;37.10;29.50
4386;DHT22;2207;53.540;10.042;2023-07-02T06:44:55;37.80;28.50
4386;DHT22;2207;53.540;10.042;2023-07-02T06:47:23;37.90;28.30
4386;DHT22;2207;53.540;10.042;2023-07-02T06:52:17;38.30;27.90
4386;DHT22;2207;53.540;10.042;2023-07-02T06:54:44;38.50;27.40
4386;DHT22;2207;53.540;10.042;2023-07-02T06:57:10;38.30;27.30
4386;DHT22;2207;53.540;10.042;2023-07-02T06:59:37;38.40;26.90
4386;DHT22;2207;53.540;10.042;2023-07-02T07:02:03;38.00;26.80
4386;DHT22;2207;53.540;10.042;2023-07-02T07:04:31;37.60;27.20
4386;DHT22;2207;53.540;10.042;2023-07-02T07:06:59;37.70;26.80
4386;DHT22;2207;53.540;10.042;2023-07-02T07:09:28;36.50;27.10
4386;DHT22;2207;53.540;10.042;2023-07-02T07:11:54;34.70;28.70
4386;DHT22;2207;53.540;10.042;2023-07-02T07:14:21;33.90;29.00
4386;DHT22;2207;53.540;10.042;2023-07-02T07:16:48;32.90;30.00
4386;DHT22;2207;53.540;10.042;2023-07-02T07:19:15;31.90;31.70
4386;DHT22;2207;53.540;10.042;2023-07-02T07:21:43;31.40;31.80
4386;DHT22;2207;53.540;10.042;2023-07-02T07:24:10;31.50;32.10
4386;DHT22;2207;53.540;10.042;2023-07-02T07:26:36;31.50;31.70
4386;DHT22;2207;53.540;10.042;2023-07-02T07:29:04;30.30;32.40
4386;DHT22;2207;53.540;10.042;2023-07-02T07:31:30;28.40;34.70
4386;DHT22;2207;53.540;10.042;2023-07-02T07:33:57;26.40;37.80
4386;DHT22;2207;53.540;10.042;2023-07-02T07:36:23;24.70;40.50
4386;DHT22;2207;53.540;10.042;2023-07-02T07:38:51;23.30;42.60
4386;DHT22;2207;53.540;10.042;2023-07-02T07:41:17;22.40;44.40
4386;DHT22;2207;53.540;10.042;2023-07-02T07:43:44;21.90;45.60
4386;DHT22;2207;53.540;10.042;2023-07-02T07:46:10;22.00;45.70
4386;DHT22;2207;53.540;10.042;2023-07-02T07:48:37;22.30;45.40
4386;DHT22;2207;53.540;10.042;2023-07-02T07:51:04;22.70;45.10
4386;DHT22;2207;53.540;10.042;2023-07-02T07:53:30;23.30;43.90
4386;DHT22;2207;53.540;10.042;2023-07-02T07:55:58;23.60;42.90
4386;DHT22;2207;53.540;10.042;2023-07-02T07:58:24;23.60;42.70
4386;DHT22;2207;53.540;10.042;2023-07-02T08:00:51;23.90;42.70
4386;DHT22;2207;53.540;10.042;2023-07-02T08:03:17;25.20;42.70
4386;DHT22;2207;53.540;10.042;2023-07-02T08:05:44;27.60;38.70
4386;DHT22;2207;53.540;10.042;2023-07-02T08:08:10;29.80;35.50
4386;DHT22;2207;53.540;10.042;2023-07-02T08:10:37;31.10;33.30
4386;DHT22;2207;53.540;10.042;2023-07-02T08:13:05;31.70;32.70
4386;DHT22;2207;53.540;10.042;2023-07-02T08:15:33;31.50;32.50
4386;DHT22;2207;53.540;10.042;2023-07-02T08:18:00;31.40;32.80
4386;DHT22;2207;53.540;10.042;2023-07-02T08:20:26;31.90;31.90
4386;DHT22;2207;53.540;10.042;2023-07-02T08:22:53;32.60;31.00
4386;DHT22;2207;53.540;10.042;2023-07-02T08:25:20;32.20;30.30
4386;DHT22;2207;53.540;10.042;2023-07-02T08:27:47;30.90;31.00
4386;DHT22;2207;53.540;10.042;2023-07-02T08:30:15;29.20;32.70
4386;DHT22;2207;53.540;10.042;2023-07-02T08:32:42;27.70;34.10
4386;DHT22;2207;53.540;10.042;2023-07-02T08:35:08;26.20;35.20
4386;DHT22;2207;53.540;10.042;2023-07-02T08:37:35;24.80;36.60
4386;DHT22;2207;53.540;10.042;2023-07-02T08:40:01;24.10;37.10
4386;DHT22;2207;53.540;10.042;2023-07-02T08:42:30;24.10;36.80
4386;DHT22;2207;53.540;10.042;2023-07-02T08:44:57;24.30;35.90
4386;DHT22;2207;53.540;10.042;2023-07-02T08:47:27;24.60;35.30
4386;DHT22;2207;53.540;10.042;2023-07-02T08:49:53;24.90;34.70
4386;DHT22;2207;53.540;10.042;2023-07-02T08:52:20;24.70;34.80
4386;DHT22;2207;53.540;10.042;2023-07-02T08:54:46;24.60;35.10
4386;DHT22;2207;53.540;10.042;2023-07-02T08:57:13;24.40;35.30
4386;DHT22;2207;53.540;10.042;2023-07-02T08:59:39;24.20;35.90
4386;DHT22;2207;53.540;10.042;2023-07-02T09:02:06;24.00;36.50
4386;DHT22;2207;53.540;10.042;2023-07-02T09:04:34;23.70;36.40
4386;DHT22;2207;53.540;10.042;2023-07-02T09:07:04;23.40;36.80
4386;DHT22;2207;53.540;10.042;2023-07-02T09:09:44;23.30;37.40
4386;DHT22;2207;53.540;10.042;2023-07-02T09:12:21;23.30;37.40
4386;DHT22;2207;53.540;10.042;2023-07-02T09:14:53;23.40;37.20
4386;DHT22;2207;53.540;10.042;2023-07-02T09:17:20;23.70;36.40
4386;DHT22;2207;53.540;10.042;2023-07-02T09:19:49;23.80;36.40
4386;DHT22;2207;53.540;10.042;2023-07-02T09:22:16;23.70;36.40
4386;DHT22;2207;53.540;10.042;2023-07-02T09:24:50;23.20;37.20
4386;DHT22;2207;53.540;10.042;2023-07-02T09:27:17;22.70;38.70
4386;DHT22;2207;53.540;10.042;2023-07-02T09:29:49;22.10;40.20
4386;DHT22;2207;53.540;10.042;2023-07-02T09:32:23;21.60;41.20
4386;DHT22;2207;53.540;10.042;2023-07-02T09:34:51;21.10;42.30
4386;DHT22;2207;53.540;10.042;2023-07-02T09:37:18;20.80;43.00
4386;DHT22;2207;53.540;10.042;2023-07-02T09:39:44;20.50;43.60
4386;DHT22;2207;53.540;10.042;2023-07-02T09:42:15;20.30;44.30
4386;DHT22;2207;53.540;10.042;2023-07-02T09:44:45;20.10;45.30
4386;DHT22;2207;53.540;10.042;2023-07-02T09:47:12;20.20;46.20
4386;DHT22;2207;53.540;10.042;2023-07-02T09:49:39;20.70;45.40
4386;DHT22;2207;53.540;10.042;2023-07-02T09:52:07;21.20;44.90
4386;DHT22;2207;53.540;10.042;2023-07-02T09:54:34;21.80;43.90
4386;DHT22;2207;53.540;10.042;2023-07-02T09:57:01;22.10;42.90
4386;DHT22;2207;53.540;10.042;2023-07-02T09:59:28;22.20;42.40
4386;DHT22;2207;53.540;10.042;2023-07-02T10:01:55;22.30;42.00
4386;DHT22;2207;53.540;10.042;2023-07-02T10:04:22;22.20;41.90
4386;DHT22;2207;53.540;10.042;2023-07-02T10:06:50;22.10;42.00
4386;DHT22;2207;53.540;10.042;2023-07-02T10:09:18;22.00;41.50
4386;DHT22;2207;53.540;10.042;2023-07-02T10:11:44;22.10;40.70
4386;DHT22;2207;53.540;10.042;2023-07-02T10:14:11;22.00;40.90
4386;DHT22;2207;53.540;10.042;2023-07-02T10:16:50;21.90;41.30
4386;DHT22;2207;53.540;10.042;2023-07-02T10:19:17;21.70;41.80
4386;DHT22;2207;53.540;10.042;2023-07-02T10:21:43;21.70;42.40
4386;DHT22;2207;53.540;10.042;2023-07-02T10:24:12;22.00;42.20
4386;DHT22;2207;53.540;10.042;2023-07-02T10:26:52;22.50;41.80
4386;DHT22;2207;53.540;10.042;2023-07-02T10:29:19;22.90;41.30
4386;DHT22;2207;53.540;10.042;2023-07-02T10:31:50;23.20;41.00
4386;DHT22;2207;53.540;10.042;2023-07-02T10:34:16;23.40;40.70
4386;DHT22;2207;53.540;10.042;2023-07-02T10:36:53;23.60;40.60
4386;DHT22;2207;53.540;10.042;2023-07-02T10:39:20;23.40;40.20
4386;DHT22;2207;53.540;10.042;2023-07-02T10:41:47;22.80;40.50
4386;DHT22;2207;53.540;10.042;2023-07-02T10:44:15;22.40;41.40
4386;DHT22;2207;53.540;10.042;2023-07-02T10:46:44;22.10;41.90
4386;DHT22;2207;53.540;10.042;2023-07-02T10:49:11;21.90;42.10
4386;DHT22;2207;53.540;10.042;2023-07-02T10:51:38;21.50;42.30
4386;DHT22;2207;53.540;10.042;2023-07-02T10:54:05;21.20;42.80
4386;DHT22;2207;53.540;10.042;2023-07-02T10:56:31;21.00;43.00
4386;DHT22;2207;53.540;10.042;2023-07-02T10:58:58;20.90;43.70
4386;DHT22;2207;53.540;10.042;2023-07-02T11:01:27;20.80;44.50
4386;DHT22;2207;53.540;10.042;2023-07-02T11:03:57;20.70;45.30
4386;DHT22;2207;53.540;10.042;2023-07-02T11:06:24;20.90;45.60
4386;DHT22;2207;53.540;10.042;2023-07-02T11:08:51;21.20;45.00
4386;DHT22;2207;53.540;10.042;2023-07-02T11:11:17;21.60;44.90
4386;DHT22;2207;53.540;10.042;2023-07-02T11:13:44;22.00;43.50
4386;DHT22;2207;53.540;10.042;2023-07-02T11:16:21;22.00;43.50
4386;DHT22;2207;53.540;10.042;2023-07-02T11:18:52;21.80;43.30
4386;DHT22;2207;53.540;10.042;2023-07-02T11:21:19;21.50;43.60
4386;DHT22;2207;53.540;10.042;2023-07-02T11:23:45;21.20;43.80
4386;DHT22;2207;53.540;10.042;2023-07-02T11:26:12;21.20;44.00
4386;DHT22;2207;53.540;10.042;2023-07-02T11:28:47;21.50;43.60
4386;DHT22;2207;53.540;10.042;2023-07-02T11:31:13;22.00;43.70
4386;DHT22;2207;53.540;10.042;2023-07-02T11:33:40;22.60;42.20
4386;DHT22;2207;53.540;10.042;2023-07-02T11:36:18;22.80;41.70
4386;DHT22;2207;53.540;10.042;2023-07-02T11:38:45;23.30;41.40
4386;DHT22;2207;53.540;10.042;2023-07-02T11:41:12;24.00;40.50
4386;DHT22;2207;53.540;10.042;2023-07-02T11:43:39;24.20;39.20
4386;DHT22;2207;53.540;10.042;2023-07-02T11:46:05;24.00;38.70
4386;DHT22;2207;53.540;10.042;2023-07-02T11:48:32;23.50;38.90
4386;DHT22;2207;53.540;10.042;2023-07-02T11:50:58;23.10;39.30
4386;DHT22;2207;53.540;10.042;2023-07-02T11:53:26;23.00;39.70
4386;DHT22;2207;53.540;10.042;2023-07-02T11:55:53;23.20;39.50
4386;DHT22;2207;53.540;10.042;2023-07-02T11:58:19;23.60;38.40
4386;DHT22;2207;53.540;10.042;2023-07-02T12:00:46;23.90;37.60
4386;DHT22;2207;53.540;10.042;2023-07-02T12:03:12;24.00;36.70
4386;DHT22;2207;53.540;10.042;2023-07-02T12:05:39;23.90;36.70
4386;DHT22;2207;53.540;10.042;2023-07-02T12:08:05;23.70;36.80
4386;DHT22;2207;53.540;10.042;2023-07-02T12:10:35;23.40;37.10
4386;DHT22;2207;53.540;10.042;2023-07-02T12:13:01;23.00;37.60
4386;DHT22;2207;53.540;10.042;2023-07-02T12:15:28;22.80;38.00
4386;DHT22;2207;53.540;10.042;2023-07-02T12:17:54;22.90;38.20
4386;DHT22;2207;53.540;10.042;2023-07-02T12:20:21;23.10;37.60
4386;DHT22;2207;53.540;10.042;2023-07-02T12:22:47;23.30;37.00
4386;DHT22;2207;53.540;10.042;2023-07-02T12:25:14;23.50;37.10
4386;DHT22;2207;53.540;10.042;2023-07-02T12:27:42;23.40;37.40
4386;DHT22;2207;53.540;10.042;2023-07-02T12:30:08;23.20;37.90
4386;DHT22;2207;53.540;10.042;2023-07-02T12:32:37;22.90;38.50
4386;DHT22;2207;53.540;10.042;2023-07-02T12:35:04;22.60;38.90
4386;DHT22;2207;53.540;10.042;2023-07-02T12:37:31;22.60;39.60
4386;DHT22;2207;53.540;10.042;2023-07-02T12:39:58;22.60;39.00
4386;DHT22;2207;53.540;10.042;2023-07-02T12:42:24;22.50;39.20
4386;DHT22;2207;53.540;10.042;2023-07-02T12:44:52;22.40;39.60
4386;DHT22;2207;53.540;10.042;2023-07-02T12:47:20;22.50;39.40
4386;DHT22;2207;53.540;10.042;2023-07-02T12:49:46;22.30;39.60
4386;DHT22;2207;53.540;10.042;2023-07-02T12:52:13;22.10;40.00
4386;DHT22;2207;53.540;10.042;2023-07-02T12:54:39;22.00;40.30
4386;DHT22;2207;53.540;10.042;2023-07-02T12:57:06;22.20;40.00
4386;DHT22;2207;53.540;10.042;2023-07-02T12:59:33;22.30;39.60
4386;DHT22;2207;53.540;10.042;2023-07-02T13:02:00;22.10;39.60
4386;DHT22;2207;53.540;10.042;2023-07-02T13:04:27;22.00;39.60
4386;DHT22;2207;53.540;10.042;2023-07-02T13:06:54;22.10;39.40
4386;DHT22;2207;53.540;10.042;2023-07-02T13:09:21;22.20;39.10
4386;DHT22;2207;53.540;10.042;2023-07-02T13:11:47;22.30;38.90
4386;DHT22;2207;53.540;10.042;2023-07-02T13:14:14;22.30;38.70
4386;DHT22;2207;53.540;10.042;2023-07-02T13:16:40;22.30;39.30
4386;DHT22;2207;53.540;10.042;2023-07-02T13:19:08;22.20;39.80
4386;DHT22;2207;53.540;10.042;2023-07-02T13:21:36;21.90;40.40
4386;DHT22;2207;53.540;10.042;2023-07-02T13:24:02;21.50;41.10
4386;DHT22;2207;53.540;10.042;2023-07-02T13:26:29;21.10;41.70
4386;DHT22;2207;53.540;10.042;2023-07-02T13:28:55;20.90;42.10
4386;DHT22;2207;53.540;10.042;2023-07-02T13:31:22;20.90;42.50
4386;DHT22;2207;53.540;10.042;2023-07-02T13:33:49;21.00;42.30
4386;DHT22;2207;53.540;10.042;2023-07-02T13:36:17;21.20;42.10
4386;DHT22;2207;53.540;10.042;2023-07-02T13:38:43;21.30;41.90
4386;DHT22;2207;53.540;10.042;2023-07-02T13:41:10;21.30;41.70
4386;DHT22;2207;53.540;10.042;2023-07-02T13:43:36;21.40;41.60
4386;DHT22;2207;53.540;10.042;2023-07-02T13:46:03;21.30;41.40
4386;DHT22;2207;53.540;10.042;2023-07-02T13:48:29;21.20;41.40
4386;DHT22;2207;53.540;10.042;2023-07-02T13:50:56;21.20;41.30
4386;DHT22;2207;53.540;10.042;2023-07-02T13:53:24;21.30;41.20
4386;DHT22;2207;53.540;10.042;2023-07-02T13:55:50;21.50;41.20
4386;DHT22;2207;53.540;10.042;2023-07-02T13:58:17;21.70;40.80
4386;DHT22;2207;53.540;10.042;2023-07-02T14:00:45;21.80;40.40
4386;DHT22;2207;53.540;10.042;2023-07-02T14:03:11;21.90;40.30
4386;DHT22;2207;53.540;10.042;2023-07-02T14:05:38;21.90;40.40
4386;DHT22;2207;53.540;10.042;2023-07-02T14:08:04;21.90;40.50
4386;DHT22;2207;53.540;10.042;2023-07-02T14:10:31;21.80;40.70
4386;DHT22;2207;53.540;10.042;2023-07-02T14:12:57;21.80;41.00
4386;DHT22;2207;53.540;10.042;2023-07-02T14:15:24;22.00;41.20
4386;DHT22;2207;53.540;10.042;2023-07-02T14:17:54;22.30;40.90
4386;DHT22;2207;53.540;10.042;2023-07-02T14:20:21;22.40;40.90
4386;DHT22;2207;53.540;10.042;2023-07-02T14:22:47;22.20;41.20
4386;DHT22;2207;53.540;10.042;2023-07-02T14:25:14;22.10;41.50
4386;DHT22;2207;53.540;10.042;2023-07-02T14:27:40;22.30;40.60
4386;DHT22;2207;53.540;10.042;2023-07-02T14:30:07;22.30;40.00
4386;DHT22;2207;53.540;10.042;2023-07-02T14:32:34;22.30;40.20
4386;DHT22;2207;53.540;10.042;2023-07-02T14:35:02;22.30;40.10
4386;DHT22;2207;53.540;10.042;2023-07-02T14:37:29;22.50;40.00
4386;DHT22;2207;53.540;10.042;2023-07-02T14:39:56;22.50;40.00
4386;DHT22;2207;53.540;10.042;2023-07-02T14:42:22;22.60;39.80
4386;DHT22;2207;53.540;10.042;2023-07-02T14:44:49;22.70;39.20
4386;DHT22;2207;53.540;10.042;2023-07-02T14:47:15;22.80;38.90
4386;DHT22;2207;53.540;10.042;2023-07-02T14:49:42;22.70;38.80
4386;DHT22;2207;53.540;10.042;2023-07-02T14:52:10;22.50;38.70
4386;DHT22;2207;53.540;10.042;2023-07-02T14:54:37;22.10;38.70
4386;DHT22;2207;53.540;10.042;2023-07-02T14:57:04;21.90;38.70
4386;DHT22;2207;53.540;10.042;2023-07-02T14:59:31;21.80;38.50
4386;DHT22;2207;53.540;10.042;2023-07-02T15:01:57;21.80;38.70
4386;DHT22;2207;53.540;10.042;2023-07-02T15:04:24;21.80;38.90
4386;DHT22;2207;53.540;10.042;2023-07-02T15:06:50;22.20;38.80
4386;DHT22;2207;53.540;10.042;2023-07-02T15:09:18;22.50;38.30
4386;DHT22;2207;53.540;10.042;2023-07-02T15:11:45;22.60;38.00
4386;DHT22;2207;53.540;10.042;2023-07-02T15:14:11;22.60;38.00
4386;DHT22;2207;53.540;10.042;2023-07-02T15:16:38;22.50;38.30
4386;DHT22;2207;53.540;10.042;2023-07-02T15:19:04;22.40;38.60
4386;DHT22;2207;53.540;10.042;2023-07-02T15:21:31;22.60;38.70
4386;DHT22;2207;53.540;10.042;2023-07-02T15:23:57;22.90;38.40
4386;DHT22;2207;53.540;10.042;2023-07-02T15:26:25;23.10;38.10
4386;DHT22;2207;53.540;10.042;2023-07-02T15:28:52;23.20;37.90
4386;DHT22;2207;53.540;10.042;2023-07-02T15:31:18;23.10;37.60
4386;DHT22;2207;53.540;10.042;2023-07-02T15:33:45;23.00;37.60
4386;DHT22;2207;53.540;10.042;2023-07-02T15:36:11;23.00;37.70
4386;DHT22;2207;53.540;10.042;2023-07-02T15:38:39;22.90;37.80
4386;DHT22;2207;53.540;10.042;2023-07-02T15:41:10;22.70;37.80
4386;DHT22;2207;53.540;10.042;2023-07-02T15:43:38;22.40;38.00
4386;DHT22;2207;53.540;10.042;2023-07-02T15:46:06;22.20;38.50